This is the latest recevied weather packets stored in our database for station/object KM8V-8. If no packets are shown the sender has not sent any weather packets the latest 10 day(s).
| Time | Temp. | Humidity | Pressure | Rain* | Wind** | Luminosity | Snow |
|---|---|---|---|---|---|---|---|
| 1777841719 | 15.56° C | 42% | 1010.9 hPa | 0 mm | - | 269 W/m² | - |
| 1777841119 | 15.56° C | 42% | 1010.9 hPa | 0 mm | - | 226 W/m² | - |
| 1777840216 | 16.11° C | 42% | 1011 hPa | 0 mm | - | 468 W/m² | - |
| 1777839916 | 16.11° C | 41% | 1011.1 hPa | 0 mm | - | 503 W/m² | - |
| 1777839616 | 16.11° C | 41% | 1011.1 hPa | 0 mm | - | 767 W/m² | - |
| 1777839316 | 15.56° C | 42% | 1011.2 hPa | 0 mm | - | 687 W/m² | - |
| 1777839020 | 15.56° C | 42% | 1011.2 hPa | 0 mm | - | 488 W/m² | - |
| 1777838720 | 15.56° C | 41% | 1011.3 hPa | 0 mm | - | 408 W/m² | - |
| 1777838418 | 15.56° C | 42% | 1011.4 hPa | 0 mm | - | 619 W/m² | - |
| 1777838117 | 15.56° C | 42% | 1011.5 hPa | 0 mm | - | 288 W/m² | - |
| 1777837818 | 15.56° C | 42% | 1011.6 hPa | 0 mm | - | 443 W/m² | - |
| 1777837521 | 15.56° C | 42% | 1011.7 hPa | 0 mm | - | 481 W/m² | - |
| 1777835417 | 15.56° C | 42% | 1012.1 hPa | 0 mm | - | 363 W/m² | - |
| 1777834818 | 15.56° C | 43% | 1012.3 hPa | 0 mm | - | 509 W/m² | - |
| 1777834518 | 15.56° C | 42% | 1012.3 hPa | 0 mm | - | 904 W/m² | - |
| 1777834218 | 15.56° C | 43% | 1012.3 hPa | 0 mm | - | 703 W/m² | - |
| 1777833018 | 15.56° C | 44% | 1012.6 hPa | 0 mm | - | 818 W/m² | - |
| 1777831819 | 15° C | 44% | 1012.8 hPa | 0 mm | - | 470 W/m² | - |
| 1777829118 | 15° C | 46% | 1013.4 hPa | 0 mm | - | 883 W/m² | - |
| 1777828517 | 15° C | 47% | 1013.5 hPa | 0 mm | - | 915 W/m² | - |
| 1777828220 | 15° C | 47% | 1013.6 hPa | 0 mm | - | 913 W/m² | - |
| 1777827620 | 14.44° C | 46% | 1013.7 hPa | 0 mm | - | 908 W/m² | - |
| 1777824018 | 12.78° C | 48% | 1014.5 hPa | 0 mm | - | 844 W/m² | - |
| 1777821019 | 11.67° C | 49% | 1014.8 hPa | 0 mm | - | 746 W/m² | - |
| 1777820419 | 11.67° C | 49% | 1014.8 hPa | 0 mm | - | 721 W/m² | - |
* Rain latest hour (hover to see other rain measurements)
** Current wind speed in m/s (hover to see current wind gust speed)